Time;durP1;ratioP1;P1;durP2;ratioP2;P2;SDS_P1;SDS_P2;PMS_P1;PMS_P2;Temp;Humidity;BMP_temperature;BMP_pressure;BME280_temperature;BME280_humidity;BME280_pressure;Samples;Min_cycle;Max_cycle;Signal;HPM_P1;HPM_P2
2021/12/27 00:02:19;;;;;;;;;7.00;6.00;;;;;10.85;100.00;99807.22;4967098;28;45261;-86
2021/12/27 00:04:44;;;;;;;;;6.50;6.00;;;;;10.84;100.00;99799.41;4965455;28;45322;-86
2021/12/27 00:07:10;;;;;;;;;5.25;5.00;;;;;10.86;100.00;99797.44;4972442;28;45018;-86
2021/12/27 00:09:36;;;;;;;;;7.00;7.00;;;;;10.85;100.00;99793.09;4974741;28;46367;-86
2021/12/27 00:12:03;;;;;;;;;10.60;8.20;;;;;10.84;100.00;99794.91;4992006;28;44801;-86
2021/12/27 00:14:30;;;;;;;;;5.00;5.00;;;;;10.85;100.00;99791.28;4976249;28;44728;-85
2021/12/27 00:16:55;;;;;;;;;5.00;5.00;;;;;10.88;100.00;99776.88;4971926;28;44776;-87
2021/12/27 00:19:21;;;;;;;;;4.75;4.75;;;;;10.88;100.00;99772.44;4971079;28;47157;-85
2021/12/27 00:21:46;;;;;;;;;8.00;6.00;;;;;10.87;100.00;99769.88;4970921;28;44781;-86
2021/12/27 00:24:11;;;;;;;;;4.75;4.50;;;;;10.86;100.00;99770.88;4969144;28;45108;-86
2021/12/27 00:26:37;;;;;;;;;7.00;5.75;;;;;10.88;100.00;99772.44;4965665;28;45525;-86
2021/12/27 00:29:03;;;;;;;;;6.00;4.00;;;;;10.91;100.00;99772.16;4965434;28;45132;-86
2021/12/27 00:31:28;;;;;;;;;8.00;5.25;;;;;10.91;100.00;99769.50;4962289;28;45337;-86
2021/12/27 00:33:54;;;;;;;;;3.00;3.00;;;;;10.94;100.00;99765.75;4961814;28;45424;-88
2021/12/27 00:36:19;;;;;;;;;8.00;4.75;;;;;10.91;100.00;99761.53;4961014;28;44807;-88
2021/12/27 00:38:44;;;;;;;;;5.50;5.25;;;;;10.93;100.00;99762.28;4959968;28;46683;-86
2021/12/27 00:41:10;;;;;;;;;3.75;3.75;;;;;10.92;100.00;99762.38;4960910;28;45379;-87
2021/12/27 00:43:35;;;;;;;;;5.00;4.00;;;;;10.89;100.00;99760.84;4960501;28;45481;-86
2021/12/27 00:46:01;;;;;;;;;7.00;4.75;;;;;10.89;100.00;99760.00;4960875;28;45237;-86
2021/12/27 00:48:26;;;;;;;;;7.00;4.00;;;;;10.86;100.00;99758.44;4967007;28;45270;-86
2021/12/27 00:50:52;;;;;;;;;4.50;3.00;;;;;10.85;100.00;99751.44;4967835;28;45413;-85
2021/12/27 00:53:17;;;;;;;;;6.00;4.00;;;;;10.83;100.00;99750.72;4966190;28;45379;-86
2021/12/27 00:55:43;;;;;;;;;4.25;2.00;;;;;10.82;100.00;99752.50;4960348;28;45623;-86
2021/12/27 00:58:09;;;;;;;;;6.75;4.00;;;;;10.82;100.00;99763.16;4942373;28;46045;-86
2021/12/27 01:00:34;;;;;;;;;5.00;4.50;;;;;10.81;100.00;99758.81;4960063;28;44884;-87
2021/12/27 01:03:00;;;;;;;;;2.00;1.25;;;;;10.80;100.00;99757.13;4960163;28;45447;-87
2021/12/27 01:05:27;;;;;;;;;3.25;1.00;;;;;10.81;100.00;99750.84;4960112;28;45291;-87
2021/12/27 01:07:53;;;;;;;;;3.60;3.60;;;;;10.84;100.00;99756.88;4959996;28;45387;-85
2021/12/27 01:18:04;;;;;;;;;6.40;2.00;;;;;10.85;100.00;99738.16;4967884;28;45350;-85
2021/12/27 01:20:30;;;;;;;;;5.00;1.25;;;;;10.88;100.00;99743.22;4954289;28;45109;-85
2021/12/27 01:22:56;;;;;;;;;3.50;3.50;;;;;10.88;100.00;99732.59;4970379;28;44669;-88
2021/12/27 01:25:41;;;;;;;;;7.20;4.20;;;;;10.86;100.00;99729.19;4972139;28;44943;-86
2021/12/27 01:28:07;;;;;;;;;5.00;4.00;;;;;10.91;100.00;99734.97;4970237;28;45163;-88
2021/12/27 01:30:37;;;;;;;;;2.00;2.00;;;;;10.91;100.00;99727.00;4973845;28;44634;-87
2021/12/27 01:33:04;;;;;;;;;7.20;4.20;;;;;10.94;100.00;99729.41;4957951;28;44753;-88
2021/12/27 01:35:29;;;;;;;;;3.60;2.40;;;;;10.95;100.00;99723.09;4957427;28;44837;-85
2021/12/27 01:37:57;;;;;;;;;4.50;3.25;;;;;10.93;100.00;99714.44;4956934;28;46690;-87
2021/12/27 01:40:27;;;;;;;;;4.00;3.00;;;;;10.98;100.00;99720.19;4948989;28;44712;-85
2021/12/27 01:43:05;;;;;;;;;6.00;4.60;;;;;10.99;100.00;99707.75;4946344;28;44851;-87
2021/12/27 01:45:31;;;;;;;;;6.00;4.60;;;;;10.98;100.00;99706.91;4943443;28;44872;-90
2021/12/27 01:47:57;;;;;;;;;5.00;3.00;;;;;11.03;100.00;99706.53;4942541;28;47007;-87
2021/12/27 01:50:22;;;;;;;;;4.50;3.00;;;;;11.06;100.00;99712.41;4959636;28;44881;-86
2021/12/27 01:52:48;;;;;;;;;6.75;4.50;;;;;11.07;100.00;99705.25;4965524;28;44811;-86
2021/12/27 01:55:13;;;;;;;;;4.00;4.00;;;;;11.07;100.00;99705.25;4964921;28;45404;-87
2021/12/27 01:57:39;;;;;;;;;6.00;4.00;;;;;11.04;100.00;99698.41;4965585;28;45473;-85
2021/12/27 02:00:06;;;;;;;;;7.00;3.75;;;;;11.04;100.00;99708.19;4967050;28;44891;-86
2021/12/27 02:02:32;;;;;;;;;5.00;5.00;;;;;11.01;100.00;99719.91;4969116;28;45429;-85
2021/12/27 02:04:57;;;;;;;;;3.00;3.00;;;;;10.98;100.00;99722.88;4968785;28;44782;-86
2021/12/27 02:07:23;;;;;;;;;7.00;4.75;;;;;10.99;100.00;99723.69;4964710;28;45262;-87
2021/12/27 02:10:01;;;;;;;;;6.25;5.00;;;;;10.98;100.00;99714.06;4968021;28;44790;-86
2021/12/27 02:12:26;;;;;;;;;7.20;4.00;;;;;10.96;100.00;99710.66;4962141;28;45359;-88
2021/12/27 02:14:51;;;;;;;;;4.00;3.50;;;;;10.94;100.00;99710.81;4965307;28;44923;-87
2021/12/27 02:17:20;;;;;;;;;9.00;3.75;;;;;10.94;100.00;99708.16;4966678;28;46112;-87
2021/12/27 02:19:50;;;;;;;;;4.00;4.00;;;;;10.94;100.00;99700.16;4969382;28;45327;-86
2021/12/27 02:22:21;;;;;;;;;3.80;3.40;;;;;10.94;100.00;99702.81;4973657;28;44720;-87
2021/12/27 02:24:46;;;;;;;;;4.60;4.60;;;;;10.94;100.00;99694.84;4967087;28;44968;-86
2021/12/27 02:27:13;;;;;;;;;8.50;4.00;;;;;10.92;100.00;99694.13;4968451;28;46399;-87
2021/12/27 02:29:40;;;;;;;;;6.40;4.00;;;;;10.95;100.00;99701.00;4967647;28;44688;-87
2021/12/27 02:32:06;;;;;;;;;6.50;5.25;;;;;10.94;100.00;99689.53;4962211;28;44675;-87
2021/12/27 02:34:31;;;;;;;;;6.00;4.75;;;;;10.94;100.00;99683.38;4964422;28;45392;-86
2021/12/27 02:36:57;;;;;;;;;7.25;5.00;;;;;10.90;100.00;99682.81;4963925;28;45315;-86
2021/12/27 02:39:26;;;;;;;;;6.00;6.00;;;;;10.87;100.00;99679.56;4967696;28;44752;-86
2021/12/27 02:41:52;;;;;;;;;7.20;5.80;;;;;10.84;100.00;99677.19;4960849;28;45398;-86
2021/12/27 02:44:18;;;;;;;;;6.50;5.00;;;;;10.83;100.00;99686.97;4962709;28;45450;-86
2021/12/27 02:46:43;;;;;;;;;8.50;5.00;;;;;10.80;100.00;99687.22;4963327;28;46726;-89
2021/12/27 02:49:09;;;;;;;;;4.50;3.25;;;;;10.81;100.00;99686.22;4966269;28;44732;-90
2021/12/27 02:51:36;;;;;;;;;9.00;5.00;;;;;10.80;100.00;99681.91;4965413;28;44805;-89
2021/12/27 02:54:01;;;;;;;;;3.60;3.00;;;;;10.77;100.00;99675.03;4946951;28;45176;-88
2021/12/27 02:56:29;;;;;;;;;8.00;4.75;;;;;10.78;100.00;99674.06;4949055;28;46789;-87
2021/12/27 02:58:56;;;;;;;;;5.60;5.60;;;;;10.79;100.00;99670.44;4954834;28;45332;-89
2021/12/27 03:01:24;;;;;;;;;8.80;5.40;;;;;10.80;100.00;99660.66;4975184;28;45228;-88
2021/12/27 03:03:50;;;;;;;;;7.80;5.00;;;;;10.79;100.00;99654.50;4972033;28;44757;-88
2021/12/27 03:06:30;;;;;;;;;5.00;5.00;;;;;10.79;100.00;99645.69;4972617;28;45244;-90
2021/12/27 03:08:56;;;;;;;;;7.40;5.00;;;;;10.79;100.00;99645.69;4955962;28;45449;-90
2021/12/27 03:11:21;;;;;;;;;4.50;4.50;;;;;10.80;100.00;99656.19;4947723;28;44767;-89
2021/12/27 03:13:52;;;;;;;;;12.00;7.00;;;;;10.80;100.00;99650.88;4948403;28;45330;-90
2021/12/27 03:16:20;;;;;;;;;6.20;5.00;;;;;10.80;100.00;99658.84;4962230;28;46168;-88
2021/12/27 03:18:51;;;;;;;;;6.00;3.40;;;;;10.81;100.00;99644.56;4949884;28;44744;-90
2021/12/27 03:21:17;;;;;;;;;5.00;5.00;;;;;10.81;100.00;99644.56;4945079;28;44711;-84
2021/12/27 03:23:44;;;;;;;;;5.20;4.00;;;;;10.79;100.00;99648.34;4962368;28;45315;-83
2021/12/27 03:26:09;;;;;;;;;10.60;6.00;;;;;10.78;100.00;99646.63;4943377;28;47984;-83
2021/12/27 03:28:35;;;;;;;;;6.25;5.00;;;;;10.80;100.00;99648.22;4965864;28;45436;-83
2021/12/27 03:31:01;;;;;;;;;8.50;5.00;;;;;10.80;100.00;99640.22;4950903;28;45493;-83
2021/12/27 03:33:28;;;;;;;;;2.00;2.00;;;;;10.80;100.00;99642.06;4959952;28;44843;-82
2021/12/27 03:36:11;;;;;;;;;6.80;6.00;;;;;10.80;100.00;99634.09;4940934;28;46989;-84
2021/12/27 03:38:40;;;;;;;;;4.40;4.00;;;;;10.78;100.00;99636.00;4957634;28;45421;-84
2021/12/27 03:41:13;;;;;;;;;6.40;5.20;;;;;10.76;100.00;99625.53;4941024;28;45399;-83
2021/12/27 03:43:39;;;;;;;;;7.40;6.00;;;;;10.72;100.00;99632.06;4941606;28;45342;-82
2021/12/27 03:46:05;;;;;;;;;5.00;4.00;;;;;10.67;100.00;99622.81;4960381;28;45463;-82
2021/12/27 03:48:30;;;;;;;;;11.00;5.25;;;;;10.66;100.00;99618.47;4944096;28;44846;-82
2021/12/27 03:50:57;;;;;;;;;0.00;0.00;;;;;10.64;100.00;99617.78;4959118;28;44854;-82
2021/12/27 03:53:22;;;;;;;;;10.50;6.75;;;;;10.62;100.00;99612.56;4941109;28;44891;-82
2021/12/27 03:55:48;;;;;;;;;7.25;6.50;;;;;10.62;100.00;99611.75;4959553;28;45308;-83
2021/12/27 03:58:27;;;;;;;;;11.50;5.25;;;;;10.63;100.00;99608.09;4957270;28;45259;-82
2021/12/27 04:03:50;;;;;;;;;11.00;4.50;;;;;10.66;100.00;99605.19;4953903;28;44879;-83
2021/12/27 04:06:18;;;;;;;;;5.40;2.80;;;;;10.66;100.00;99603.38;4943660;28;45276;-83
2021/12/27 04:08:44;;;;;;;;;6.60;6.00;;;;;10.66;100.00;99597.22;4945037;28;45256;-83
2021/12/27 04:11:10;;;;;;;;;9.00;5.00;;;;;10.68;100.00;99597.94;4945921;28;45420;-83
2021/12/27 04:13:35;;;;;;;;;12.00;6.00;;;;;10.70;100.00;99599.50;4963780;28;45361;-83
2021/12/27 04:16:01;;;;;;;;;5.50;4.00;;;;;10.73;100.00;99601.03;4946077;28;46805;-84
2021/12/27 04:18:26;;;;;;;;;5.25;5.00;;;;;10.75;100.00;99596.44;4944856;28;44742;-83
2021/12/27 04:20:52;;;;;;;;;5.25;5.00;;;;;10.74;100.00;99584.97;4944017;28;45394;-83
2021/12/27 04:23:17;;;;;;;;;10.00;4.00;;;;;10.77;100.00;99589.16;4963752;28;45534;-83
2021/12/27 04:25:44;;;;;;;;;6.00;3.00;;;;;10.81;100.00;99593.25;4947281;28;45193;-84
2021/12/27 04:28:09;;;;;;;;;4.40;4.40;;;;;10.81;100.00;99588.78;4949033;28;44725;-83
2021/12/27 04:30:35;;;;;;;;;5.00;4.00;;;;;10.84;100.00;99587.69;4970847;28;45241;-83
2021/12/27 04:33:01;;;;;;;;;4.25;4.00;;;;;10.88;100.00;99588.25;4968429;28;44891;-84
2021/12/27 04:35:26;;;;;;;;;4.50;4.25;;;;;10.88;100.00;99591.75;4947622;28;46601;-83
2021/12/27 04:37:52;;;;;;;;;11.25;7.50;;;;;10.89;100.00;99593.44;4943193;28;44826;-82
2021/12/27 04:40:21;;;;;;;;;5.20;5.00;;;;;10.89;100.00;99592.59;4944166;28;45427;-83
2021/12/27 04:42:52;;;;;;;;;7.00;7.00;;;;;10.86;100.00;99593.69;4944231;28;44944;-83
2021/12/27 04:45:18;;;;;;;;;6.60;4.20;;;;;10.84;100.00;99587.69;4944082;28;45653;-83
2021/12/27 04:47:44;;;;;;;;;6.50;4.00;;;;;10.84;100.00;99598.31;4959967;28;44792;-84
2021/12/27 04:50:10;;;;;;;;;6.00;5.20;;;;;10.86;100.00;99598.16;4957357;28;44832;-83
2021/12/27 04:52:35;;;;;;;;;9.50;4.50;;;;;10.88;100.00;99599.75;4959797;28;45475;-84
2021/12/27 04:55:03;;;;;;;;;6.00;4.00;;;;;10.89;100.00;99604.06;4958195;28;46294;-83
2021/12/27 04:57:29;;;;;;;;;10.20;5.40;;;;;10.86;100.00;99600.81;4958120;28;44834;-83
2021/12/27 04:59:54;;;;;;;;;5.00;4.00;;;;;10.84;100.00;99611.59;4958379;28;44769;-82
2021/12/27 05:02:20;;;;;;;;;6.25;6.00;;;;;10.82;100.00;99613.53;4974503;28;45236;-82
2021/12/27 05:04:45;;;;;;;;;5.25;4.00;;;;;10.83;100.00;99615.22;4959239;28;45265;-83
2021/12/27 05:07:11;;;;;;;;;6.50;6.50;;;;;10.81;100.00;99622.47;4959724;28;45303;-82
2021/12/27 05:09:36;;;;;;;;;2.50;2.50;;;;;10.80;100.00;99620.81;4959343;28;45325;-82
2021/12/27 05:12:02;;;;;;;;;8.75;7.50;;;;;10.78;100.00;99620.06;4959770;28;45423;-82
2021/12/27 05:14:27;;;;;;;;;11.25;7.75;;;;;10.75;100.00;99623.84;4963689;28;45099;-82
2021/12/27 05:16:53;;;;;;;;;7.00;6.00;;;;;10.76;100.00;99622.03;4964320;28;44836;-83
2021/12/27 05:19:18;;;;;;;;;6.25;6.00;;;;;10.79;100.00;99625.28;4983923;28;44798;-84
2021/12/27 05:21:44;;;;;;;;;8.50;7.00;;;;;10.80;100.00;99628.78;4972136;28;44995;-83
2021/12/27 05:24:09;;;;;;;;;5.50;5.50;;;;;10.80;100.00;99621.63;4974052;28;46976;-83
2021/12/27 05:26:35;;;;;;;;;7.75;7.00;;;;;10.80;100.00;99620.81;4974794;28;44780;-82
2021/12/27 05:29:00;;;;;;;;;6.50;5.25;;;;;10.80;100.00;99620.81;4974194;28;45312;-82
2021/12/27 05:31:26;;;;;;;;;6.25;6.25;;;;;10.78;100.00;99618.28;4973711;28;44832;-82
2021/12/27 05:33:51;;;;;;;;;7.50;6.75;;;;;10.77;100.00;99610.44;4984798;28;46708;-82
2021/12/27 05:36:17;;;;;;;;;13.25;8.50;;;;;10.78;100.00;99604.13;4965721;28;45290;-83
2021/12/27 05:38:42;;;;;;;;;7.00;6.00;;;;;10.77;100.00;99597.97;4977124;28;45349;-83
2021/12/27 05:41:08;;;;;;;;;11.50;9.25;;;;;10.75;100.00;99589.31;4978827;28;44910;-83
2021/12/27 05:43:34;;;;;;;;;6.75;6.75;;;;;10.77;100.00;99591.81;4960004;28;45175;-82
2021/12/27 05:46:02;;;;;;;;;9.75;7.75;;;;;10.77;100.00;99583.84;4973580;28;45204;-82
2021/12/27 05:48:28;;;;;;;;;11.60;6.60;;;;;10.78;100.00;99572.25;4957628;28;45237;-83
2021/12/27 05:50:53;;;;;;;;;13.00;5.60;;;;;10.75;100.00;99568.06;4957327;28;44923;-82
2021/12/27 05:53:20;;;;;;;;;8.75;7.50;;;;;10.73;100.00;99556.75;4958765;28;45233;-82
2021/12/27 05:55:45;;;;;;;;;10.40;8.40;;;;;10.73;100.00;99553.22;4960552;28;45470;-82
2021/12/27 05:58:11;;;;;;;;;7.00;5.00;;;;;10.73;100.00;99550.56;4962489;28;44775;-82
2021/12/27 06:00:37;;;;;;;;;11.75;9.00;;;;;10.72;100.00;99532.94;4964327;28;45360;-83
2021/12/27 06:03:03;;;;;;;;;10.80;8.80;;;;;10.71;100.00;99534.75;4978664;28;46799;-82
2021/12/27 06:05:29;;;;;;;;;8.00;8.00;;;;;10.66;100.00;99523.69;4959400;28;45581;-83
2021/12/27 06:07:55;;;;;;;;;8.25;7.00;;;;;10.62;100.00;99510.81;4957464;28;45190;-81
2021/12/27 06:10:20;;;;;;;;;7.25;7.25;;;;;10.59;100.00;99505.75;4973377;28;45287;-83
2021/12/27 06:12:46;;;;;;;;;9.50;8.50;;;;;10.58;100.00;99494.31;4958110;28;45249;-83
2021/12/27 06:15:13;;;;;;;;;5.25;5.25;;;;;10.53;100.00;99492.03;4975366;28;45489;-83
2021/12/27 06:17:39;;;;;;;;;7.60;6.00;;;;;10.51;100.00;99478.06;4957720;28;45268;-82
2021/12/27 06:20:08;;;;;;;;;12.00;9.25;;;;;10.50;100.00;99464.94;4958500;28;45501;-82
2021/12/27 06:22:37;;;;;;;;;15.00;9.40;;;;;10.47;100.00;99462.53;4956802;28;46402;-82
2021/12/27 06:25:03;;;;;;;;;13.60;9.40;;;;;10.46;100.00;99453.75;4956944;28;44838;-84
2021/12/27 06:27:33;;;;;;;;;12.20;11.40;;;;;10.42;100.00;99438.22;4973032;28;44850;-83
2021/12/27 06:29:59;;;;;;;;;16.00;14.25;;;;;10.40;100.00;99438.34;4972612;28;45366;-84
2021/12/27 06:32:25;;;;;;;;;13.25;12.00;;;;;10.38;100.00;99436.78;4957302;28;47048;-83
2021/12/27 06:34:50;;;;;;;;;21.50;14.00;;;;;10.35;100.00;99424.63;4978068;28;44755;-83
2021/12/27 06:37:16;;;;;;;;;11.50;11.50;;;;;10.33;100.00;99418.59;4964897;28;44677;-83
2021/12/27 06:39:41;;;;;;;;;15.00;14.00;;;;;10.27;100.00;99406.72;4964502;28;44900;-82
2021/12/27 06:42:08;;;;;;;;;16.75;11.75;;;;;10.27;100.00;99405.88;4977020;28;45570;-84
2021/12/27 06:44:34;;;;;;;;;7.80;7.00;;;;;10.20;100.00;99389.63;4977096;28;44874;-83
2021/12/27 06:47:00;;;;;;;;;13.25;10.00;;;;;10.20;100.00;99391.41;4977241;28;44838;-83
2021/12/27 06:49:27;;;;;;;;;12.25;11.25;;;;;10.19;100.00;99387.91;4957874;28;45321;-82
2021/12/27 06:51:53;;;;;;;;;12.75;11.75;;;;;10.17;100.00;99387.22;4956706;28;45467;-83
2021/12/27 06:54:18;;;;;;;;;12.50;11.50;;;;;10.17;100.00;99395.19;4956035;28;45386;-83
2021/12/27 06:56:43;;;;;;;;;12.00;12.00;;;;;10.17;100.00;99391.69;4972603;28;45419;-83
2021/12/27 06:59:09;;;;;;;;;12.25;10.75;;;;;10.16;100.00;99390.03;4956939;28;45082;-82
2021/12/27 07:01:34;;;;;;;;;8.00;8.00;;;;;10.14;100.00;99392.78;4972781;28;46479;-84
2021/12/27 07:04:00;;;;;;;;;12.00;9.00;;;;;10.14;100.00;99398.09;4957749;28;45410;-84
2021/12/27 07:06:25;;;;;;;;;9.25;8.25;;;;;10.13;100.00;99400.91;4957716;28;44795;-82
2021/12/27 07:08:50;;;;;;;;;8.00;8.00;;;;;10.14;100.00;99405.22;4956393;28;45260;-83
2021/12/27 07:11:16;;;;;;;;;9.75;7.00;;;;;10.12;100.00;99400.06;4957280;28;45532;-83
2021/12/27 07:13:41;;;;;;;;;6.50;6.50;;;;;10.11;100.00;99395.72;4957648;28;45453;-82
2021/12/27 07:16:07;;;;;;;;;9.25;7.50;;;;;10.09;100.00;99389.69;4957648;28;45495;-84
2021/12/27 07:18:32;;;;;;;;;10.00;6.00;;;;;10.05;100.00;99390.94;4972566;28;45496;-82
2021/12/27 07:20:58;;;;;;;;;7.50;6.00;;;;;10.05;100.00;99383.81;4956585;28;47270;-84
2021/12/27 07:23:23;;;;;;;;;8.00;6.75;;;;;10.04;100.00;99379.47;4956611;28;45363;-84
2021/12/27 07:25:49;;;;;;;;;5.50;4.00;;;;;10.05;100.00;99388.28;4975491;28;45378;-83
2021/12/27 07:28:15;;;;;;;;;7.00;7.00;;;;;10.04;100.00;99382.13;4961086;28;45480;-83
2021/12/27 07:30:41;;;;;;;;;11.00;6.00;;;;;10.04;100.00;99384.78;4960884;28;47285;-83
2021/12/27 07:33:06;;;;;;;;;5.40;5.40;;;;;10.03;100.00;99388.41;4959666;28;45386;-82
2021/12/27 07:35:33;;;;;;;;;5.00;4.00;;;;;10.02;100.00;99386.75;4957491;28;45443;-82
2021/12/27 07:38:00;;;;;;;;;5.40;5.40;;;;;10.00;100.00;99391.31;4961075;28;44914;-82
2021/12/27 07:40:26;;;;;;;;;10.60;6.60;;;;;9.98;100.00;99401.25;4963000;28;46644;-82
2021/12/27 07:42:51;;;;;;;;;9.25;5.25;;;;;9.97;100.00;99406.69;4962362;28;44702;-84
2021/12/27 07:45:18;;;;;;;;;6.00;5.00;;;;;9.98;100.00;99403.91;4957072;28;45341;-83
2021/12/27 07:47:43;;;;;;;;;4.80;4.00;;;;;9.99;100.00;99404.72;4957204;28;45193;-81
2021/12/27 07:50:09;;;;;;;;;5.75;4.25;;;;;9.99;100.00;99402.06;4956795;28;45277;-82
2021/12/27 07:52:40;;;;;;;;;7.25;6.75;;;;;9.92;100.00;99391.16;4957021;28;45486;-81
2021/12/27 07:55:07;;;;;;;;;4.40;4.40;;;;;9.90;100.00;99379.00;4973323;28;45307;-82
2021/12/27 07:57:33;;;;;;;;;5.75;5.00;;;;;9.91;100.00;99391.28;4974827;28;45555;-84
2021/12/27 07:59:58;;;;;;;;;6.00;6.00;;;;;9.89;100.00;99385.28;4959952;28;45432;-81
2021/12/27 08:02:24;;;;;;;;;6.75;4.50;;;;;9.89;100.00;99390.56;4958445;28;45500;-81
2021/12/27 08:04:49;;;;;;;;;7.75;5.00;;;;;9.87;100.00;99388.06;4957896;28;44871;-83
2021/12/27 08:07:15;;;;;;;;;11.00;5.00;;;;;9.83;100.00;99383.16;4957462;28;45507;-84
2021/12/27 08:09:40;;;;;;;;;4.75;4.50;;;;;9.83;100.00;99375.19;4959050;28;46480;-82
2021/12/27 08:12:09;;;;;;;;;6.00;6.00;;;;;9.85;100.00;99382.03;4961224;28;45445;-86
2021/12/27 08:14:34;;;;;;;;;8.40;7.00;;;;;9.86;100.00;99380.22;4961364;28;45156;-83
2021/12/27 08:17:00;;;;;;;;;4.00;4.00;;;;;9.85;100.00;99387.34;4960791;28;44881;-87
2021/12/27 08:19:28;;;;;;;;;5.00;4.00;;;;;9.84;100.00;99374.22;4956370;28;45257;-84
2021/12/27 08:21:53;;;;;;;;;4.00;4.00;;;;;9.82;100.00;99374.38;4958538;28;44720;-85
2021/12/27 08:24:18;;;;;;;;;7.50;5.00;;;;;9.82;100.00;99373.53;4973393;28;45231;-85
2021/12/27 08:26:44;;;;;;;;;5.75;5.25;;;;;9.84;100.00;99368.91;4959347;28;44847;-85
2021/12/27 08:29:11;;;;;;;;;3.00;3.00;;;;;9.84;100.00;99369.75;4958679;28;45044;-84
2021/12/27 08:31:37;;;;;;;;;6.40;5.20;;;;;9.85;100.00;99374.06;4956678;28;45291;-83
2021/12/27 08:34:02;;;;;;;;;5.50;5.50;;;;;9.86;100.00;99361.66;4973979;28;44758;-84
2021/12/27 08:36:28;;;;;;;;;5.75;5.75;;;;;9.85;100.00;99354.66;4958221;28;44820;-85
2021/12/27 08:38:59;;;;;;;;;4.50;4.50;;;;;9.83;100.00;99357.47;4961328;28;45358;-84
2021/12/27 08:41:27;;;;;;;;;6.00;4.20;;;;;9.87;100.00;99352.75;4973917;28;44819;-84
2021/12/27 08:44:11;;;;;;;;;4.00;4.00;;;;;9.84;100.00;99358.31;4975064;28;44851;-84
2021/12/27 08:46:40;;;;;;;;;4.00;4.00;;;;;9.83;100.00;99354.81;4959522;28;44835;-83
2021/12/27 08:49:09;;;;;;;;;3.40;3.40;;;;;9.83;100.00;99352.16;4956915;28;45477;-84
2021/12/27 08:51:37;;;;;;;;;4.20;3.80;;;;;9.86;100.00;99365.13;4957853;28;44796;-84
2021/12/27 08:54:04;;;;;;;;;5.00;3.60;;;;;9.86;100.00;99351.03;4963901;28;44795;-84
2021/12/27 08:56:30;;;;;;;;;5.00;4.00;;;;;9.87;100.00;99350.09;4965157;28;45443;-84
2021/12/27 08:58:56;;;;;;;;;10.40;6.40;;;;;9.88;100.00;99346.47;4968501;28;45199;-84
2021/12/27 09:01:21;;;;;;;;;4.00;4.00;;;;;9.87;100.00;99342.13;4966755;28;44815;-83
2021/12/27 09:03:47;;;;;;;;;8.00;6.25;;;;;9.89;100.00;99341.00;4959520;28;44813;-83
2021/12/27 09:06:14;;;;;;;;;4.50;4.50;;;;;9.91;100.00;99338.22;4960829;28;44727;-82
2021/12/27 09:08:41;;;;;;;;;6.00;6.00;;;;;9.95;100.00;99345.78;4960529;28;45489;-83
2021/12/27 09:11:09;;;;;;;;;6.40;5.80;;;;;9.94;100.00;99340.63;4961913;28;44695;-82
2021/12/27 09:13:38;;;;;;;;;6.00;4.20;;;;;10.00;100.00;99340.91;4962259;28;45431;-82
2021/12/27 09:16:05;;;;;;;;;7.60;6.40;;;;;10.01;100.00;99342.63;4958282;28;44920;-83
2021/12/27 09:18:35;;;;;;;;;5.00;3.60;;;;;10.01;100.00;99344.44;4959159;28;45301;-83
2021/12/27 09:21:01;;;;;;;;;4.80;4.80;;;;;9.99;100.00;99339.25;4959458;28;44787;-83
2021/12/27 09:23:31;;;;;;;;;5.80;3.60;;;;;9.99;100.00;99333.94;4959819;28;45402;-82
2021/12/27 09:25:59;;;;;;;;;4.00;3.80;;;;;10.06;100.00;99339.56;4959009;28;44899;-83
2021/12/27 09:28:32;;;;;;;;;7.00;5.40;;;;;10.08;100.00;99336.78;4975476;28;46745;-82
2021/12/27 09:30:58;;;;;;;;;6.80;6.00;;;;;10.11;100.00;99334.69;4959643;28;45471;-83
2021/12/27 09:33:27;;;;;;;;;4.20;4.20;;;;;10.12;100.00;99328.41;4959476;28;45454;-84
2021/12/27 09:35:54;;;;;;;;;5.80;4.00;;;;;10.15;100.00;99325.47;4960591;28;44831;-82
2021/12/27 09:38:19;;;;;;;;;5.20;5.00;;;;;10.15;100.00;99328.13;4961567;28;45406;-83
2021/12/27 09:40:47;;;;;;;;;7.00;5.25;;;;;10.16;100.00;99318.38;4962166;28;44865;-83
2021/12/27 09:43:16;;;;;;;;;4.00;4.00;;;;;10.17;100.00;99330.66;4965845;28;45283;-82
2021/12/27 09:45:47;;;;;;;;;4.00;4.00;;;;;10.18;100.00;99327.03;4963621;28;45292;-83
2021/12/27 09:48:15;;;;;;;;;6.40;3.00;;;;;10.17;100.00;99322.69;4961451;28;47005;-83
2021/12/27 09:50:58;;;;;;;;;6.00;4.60;;;;;10.19;100.00;99312.78;4962552;28;45384;-84
2021/12/27 09:53:24;;;;;;;;;4.20;3.80;;;;;10.20;100.00;99317.97;4958417;28;45243;-82
2021/12/27 09:55:51;;;;;;;;;2.75;2.75;;;;;10.19;100.00;99320.75;4958033;28;44946;-84
2021/12/27 09:58:20;;;;;;;;;7.60;5.00;;;;;10.18;100.00;99311.94;4959983;28;46297;-84
2021/12/27 10:00:49;;;;;;;;;5.00;5.00;;;;;10.16;100.00;99326.34;4957928;28;44891;-82
2021/12/27 10:03:15;;;;;;;;;3.60;3.60;;;;;10.12;100.00;99314.31;4958755;28;45243;-84
2021/12/27 10:05:40;;;;;;;;;4.25;4.25;;;;;10.10;100.00;99317.06;4958487;28;44887;-83
2021/12/27 10:08:08;;;;;;;;;6.00;4.25;;;;;10.08;100.00;99318.19;4958605;28;45448;-83
2021/12/27 10:10:35;;;;;;;;;5.60;4.60;;;;;10.07;100.00;99325.31;4956980;28;45489;-86
2021/12/27 10:13:07;;;;;;;;;4.40;3.00;;;;;10.08;100.00;99323.50;4958440;28;45353;-85
2021/12/27 10:15:39;;;;;;;;;4.80;4.00;;;;;10.05;100.00;99321.94;4959987;28;45322;-85
2021/12/27 10:18:11;;;;;;;;;4.80;4.00;;;;;10.04;100.00;99326.41;4960240;28;45400;-85
2021/12/27 10:20:37;;;;;;;;;4.60;4.60;;;;;10.03;100.00;99331.88;4960522;28;45354;-84
2021/12/27 10:23:06;;;;;;;;;3.25;3.25;;;;;10.01;100.00;99320.56;4961752;28;44744;-86
2021/12/27 10:25:33;;;;;;;;;4.00;3.00;;;;;10.01;100.00;99309.94;4963260;28;45496;-87
2021/12/27 10:28:02;;;;;;;;;4.00;3.40;;;;;10.00;100.00;99322.34;4961145;28;45426;-85
2021/12/27 10:30:31;;;;;;;;;4.40;3.80;;;;;10.01;100.00;99320.56;4979193;28;45421;-85
2021/12/27 10:33:05;;;;;;;;;2.60;2.60;;;;;10.00;100.00;99332.13;4959939;28;44716;-84
2021/12/27 10:35:41;;;;;;;;;4.80;4.00;;;;;9.97;100.00;99332.41;4958543;28;44752;-84
2021/12/27 10:38:25;;;;;;;;;5.80;4.40;;;;;9.95;100.00;99324.56;4958415;28;45362;-85
2021/12/27 10:40:53;;;;;;;;;1.00;1.00;;;;;9.94;100.00;99322.88;4950552;28;45284;-85
2021/12/27 10:43:41;;;;;;;;;4.40;4.20;;;;;9.94;100.00;99316.75;4958787;28;45144;-85
2021/12/27 10:46:18;;;;;;;;;3.20;3.20;;;;;9.94;100.00;99314.09;4957775;28;45247;-85
2021/12/27 10:48:46;;;;;;;;;3.00;3.00;;;;;9.98;100.00;99315.50;4951998;28;46705;-85
2021/12/27 10:51:13;;;;;;;;;3.40;3.00;;;;;10.00;100.00;99303.78;4965158;28;44723;-84
2021/12/27 10:53:48;;;;;;;;;5.00;5.00;;;;;10.04;100.00;99312.31;4962891;28;44761;-84
2021/12/27 10:56:14;;;;;;;;;4.60;4.60;;;;;10.04;100.00;99320.28;4964192;28;44791;-85
2021/12/27 10:58:56;;;;;;;;;4.80;4.80;;;;;10.04;100.00;99312.31;4962572;28;44984;-84
2021/12/27 11:01:24;;;;;;;;;5.00;4.80;;;;;10.08;100.00;99318.19;4959168;28;45319;-84
2021/12/27 11:03:58;;;;;;;;;6.40;5.00;;;;;10.11;100.00;99305.50;4957286;28;45359;-85
2021/12/27 11:06:27;;;;;;;;;6.20;5.00;;;;;10.14;100.00;99305.22;4957982;28;45201;-85
2021/12/27 11:08:53;;;;;;;;;7.20;6.00;;;;;10.16;100.00;99319.22;4959541;28;45393;-85
2021/12/27 11:11:21;;;;;;;;;6.00;6.00;;;;;10.14;100.00;99325.63;4959893;28;45267;-85
2021/12/27 11:13:50;;;;;;;;;6.00;6.00;;;;;10.11;100.00;99333.84;4943210;28;44780;-85
2021/12/27 11:16:15;;;;;;;;;8.00;6.00;;;;;10.05;100.00;99338.69;4945697;28;44794;-83
2021/12/27 11:18:41;;;;;;;;;4.00;4.00;;;;;10.05;100.00;99343.16;4961545;28;45148;-84
2021/12/27 11:21:15;;;;;;;;;6.00;6.00;;;;;10.09;100.00;99330.47;4961533;28;45394;-84
2021/12/27 11:23:44;;;;;;;;;6.80;6.80;;;;;10.14;100.00;99317.66;4940823;28;45241;-85
2021/12/27 11:26:12;;;;;;;;;7.50;5.50;;;;;10.19;100.00;99321.56;4942064;28;44991;-86
2021/12/27 11:28:40;;;;;;;;;4.60;4.60;;;;;10.20;100.00;99325.06;4956973;28;45088;-84
2021/12/27 11:31:15;;;;;;;;;6.00;6.00;;;;;10.19;100.00;99332.19;4957082;28;44852;-85
2021/12/27 11:34:03;;;;;;;;;6.60;6.40;;;;;10.21;100.00;99321.47;4957402;28;45427;-84
2021/12/27 11:36:31;;;;;;;;;6.00;5.75;;;;;10.25;100.00;99318.44;4957357;28;45363;-85